Bloomfield, New York
Current Conditions -  °F | °C
As of 8:54 AM on Saturday 25 Oct 2014 (Local Time) from KROC Reporting Station
Broken Clouds Broken Clouds  
Wind Chill: 51°   Ceiling: 5000
Heat Index: 51°   Visibility: 8mi
Dew Point: 46°   Wind: 7mph
Humidity: 83%   Direction: 210°SSW
Pressure: 29.81"   Gusts: NA
Location:  42.88°N, 77.46°W
Report Text: KROC 251254Z 21006KT 8SM BKN050 11/08 A2981 RMK AO2 SLP101 T01060078
Loading
Personal Weather Stations






























Interactive Weather Map
Tropical Storm Tracking
New forecast layout! Learn more

10-Day Weather Forecast

Advertisements
Track Severe Weather on mobile